Weather reports worldwide

Advertisment
Jaca, Spain (8091): temperature & dewpoint: 04.04.2020 21:00:00 - 10.04.2020 21:00:00 (CEST)Jaca, Spain (8091): wind speed & gusts: 04.04.2020 21:00:00 - 10.04.2020 21:00:00 (CEST)Jaca, Spain (8091): wind direction: 04.04.2020 21:00:00 - 10.04.2020 21:00:00 (CEST)Jaca, Spain (8091): precipitation: 04.04.2020 21:00:00 - 10.04.2020 21:00:00 (CEST)
Date & Time tt [°C] td [°C] ff [km/h] ff [kn] fx [km/h] fx [kn] dd rr [mm]
10.04.2020 21:00:00 13,8 3,2 3 1 13 7 WSW 0,0
10.04.2020 20:00:00 15,0 1,5 4 2 11 6 ESE -
10.04.2020 19:00:00 15,8 0,6 5 3 15 8 SSE 0,0
10.04.2020 18:00:00 16,8 0,0 5 3 21 12 S 0,0
10.04.2020 17:00:00 17,9 0,4 11 6 24 13 S 0,0
10.04.2020 16:00:00 19,6 2,5 8 4 21 11 SW 0,0
10.04.2020 15:00:00 18,0 -0,3 6 4 24 13 SSE 0,0
10.04.2020 14:00:00 17,8 0,4 10 6 24 13 S -
10.04.2020 13:00:00 17,8 2,1 6 3 24 13 ESE 0,0
10.04.2020 12:00:00 17,2 2,7 7 4 20 11 SE 0,0
10.04.2020 11:00:00 15,3 3,8 6 4 16 9 ESE 0,0
10.04.2020 10:00:00 11,0 3,8 3 2 13 7 E 0,0
10.04.2020 09:00:00 7,3 3,0 5 3 24 13 NE 0,0
10.04.2020 08:00:00 6,1 2,7 11 6 23 12 ENE -
10.04.2020 07:00:00 6,1 2,7 13 7 23 12 NE 0,0
10.04.2020 06:00:00 6,1 2,5 7 4 21 12 NE 0,0
10.04.2020 05:00:00 6,4 3,0 8 4 25 13 ENE 0,0
10.04.2020 04:00:00 6,9 3,6 8 4 24 13 ENE 0,0
10.04.2020 03:00:00 7,1 3,8 13 7 25 14 ENE 0,0
10.04.2020 02:00:00 8,2 3,8 11 6 22 12 ENE -
10.04.2020 01:00:00 9,0 3,8 8 4 20 11 NNE 0,0
10.04.2020 00:00:00 10,8 2,3 3 1 15 8 E 0,0
09.04.2020 23:00:00 12,1 2,3 6 3 17 9 E 0,0
09.04.2020 22:00:00 12,7 2,9 2 1 12 6 E 0,0
09.04.2020 21:00:00 14,0 2,9 5 3 15 8 SE 0,0
09.04.2020 20:00:00 14,7 2,3 5 3 18 10 E -
09.04.2020 19:00:00 16,1 2,5 6 3 18 10 E 0,0
09.04.2020 18:00:00 16,4 2,1 8 4 23 12 SE 0,0
09.04.2020 17:00:00 16,6 2,3 9 5 27 15 SE 0,0
09.04.2020 16:00:00 17,6 3,0 9 5 26 14 SE 0,0
09.04.2020 15:00:00 20,0 4,8 5 3 22 12 NW 0,0
09.04.2020 14:00:00 19,0 3,9 6 3 16 9 NW -
09.04.2020 13:00:00 18,0 3,4 3 1 15 8 SSW 0,0
09.04.2020 12:00:00 15,8 3,6 3 1 9 5 ESE 0,1
09.04.2020 11:00:00 12,8 4,5 4 2 16 9 SSE 0,0
09.04.2020 10:00:00 9,9 5,3 5 3 10 5 SE 0,0
09.04.2020 09:00:00 5,8 3,9 5 3 16 9 NE 0,0
09.04.2020 08:00:00 5,3 3,4 4 2 17 9 ENE -
09.04.2020 07:00:00 4,7 2,9 9 5 22 12 NE 0,0
09.04.2020 06:00:00 5,5 3,6 8 5 19 10 NE 0,0
09.04.2020 05:00:00 5,7 3,9 5 3 21 12 NE 0,0
09.04.2020 04:00:00 5,7 3,9 8 4 22 12 NE 0,0
09.04.2020 03:00:00 5,9 4,1 9 5 22 12 NNE 0,0
09.04.2020 02:00:00 6,7 4,8 8 4 23 13 ENE -
09.04.2020 01:00:00 6,8 5,0 10 5 23 13 ENE 0,0
09.04.2020 00:00:00 7,5 5,1 16 9 26 14 NNE 0,0
08.04.2020 23:00:00 8,7 6,2 11 6 21 12 NNE 0,0
08.04.2020 22:00:00 9,5 7,1 6 4 19 11 NE 0,1
08.04.2020 21:00:00 9,7 6,5 10 5 26 14 ENE 0,9
08.04.2020 20:00:00 11,2 3,9 12 7 22 12 NE -
08.04.2020 19:00:00 12,8 3,9 5 3 21 11 ENE 0,0
08.04.2020 18:00:00 13,4 3,9 6 4 25 13 SE 0,0
08.04.2020 17:00:00 17,2 3,4 1 0 20 11 S 0,0
08.04.2020 16:00:00 17,6 5,1 7 4 19 10 NNW 0,0
08.04.2020 15:00:00 17,0 5,6 5 3 19 10 WNW 0,0
08.04.2020 14:00:00 14,4 5,9 6 3 14 7 NW -
08.04.2020 13:00:00 13,7 5,6 6 3 13 7 NW 0,0
08.04.2020 12:00:00 13,8 5,9 3 2 11 6 W 0,0
08.04.2020 11:00:00 12,5 6,1 1 0 6 3 NNW 0,0
08.04.2020 10:00:00 9,7 6,2 0 0 6 3 SW 0,0
08.04.2020 09:00:00 7,6 5,8 3 1 14 7 E 0,0
08.04.2020 08:00:00 6,4 4,6 7 4 13 7 NE -
08.04.2020 07:00:00 6,5 4,8 1 0 13 7 SE 0,0
08.04.2020 06:00:00 6,2 4,3 6 4 17 9 ENE 0,0
08.04.2020 05:00:00 6,1 4,3 5 3 15 8 NE 0,0
08.04.2020 04:00:00 6,5 4,6 4 2 17 9 E 0,0
08.04.2020 03:00:00 6,4 4,6 4 2 10 5 ENE 0,0
08.04.2020 02:00:00 6,8 4,8 1 1 9 5 NNE -
08.04.2020 01:00:00 6,8 4,8 2 1 16 8 NE 0,0
08.04.2020 00:00:00 7,4 4,6 4 2 12 7 E 0,1
07.04.2020 23:00:00 8,5 4,6 3 1 9 5 ESE 0,0
07.04.2020 22:00:00 9,5 5,3 5 3 15 8 E 0,0
07.04.2020 21:00:00 10,2 5,6 5 3 12 7 E 0,0
07.04.2020 20:00:00 11,3 6,1 6 3 19 10 ESE -
07.04.2020 19:00:00 11,1 7,4 6 3 16 9 ESE 0,0
07.04.2020 18:00:00 10,1 7,0 7 4 22 12 ESE 0,0
07.04.2020 17:00:00 10,0 7,1 8 5 20 11 ESE 0,8
07.04.2020 16:00:00 10,3 7,4 6 4 14 7 ESE 1,6
07.04.2020 15:00:00 10,6 7,8 5 3 16 9 SE 1,5
07.04.2020 14:00:00 10,2 7,1 7 4 18 10 SE -
07.04.2020 13:00:00 10,4 5,9 6 3 16 9 ESE 1,3
07.04.2020 12:00:00 11,2 5,5 6 3 19 11 SE 0,0
07.04.2020 11:00:00 10,7 7,6 4 2 15 8 E 0,3
07.04.2020 10:00:00 9,7 7,3 7 4 16 9 ESE 0,2
07.04.2020 09:00:00 8,9 7,0 8 4 20 11 ENE 0,1
07.04.2020 08:00:00 8,6 6,7 3 2 13 7 ENE -
07.04.2020 07:00:00 8,6 6,5 6 4 19 10 NE 0,3
07.04.2020 06:00:00 8,7 6,5 9 5 19 10 NE 0,0
07.04.2020 05:00:00 8,8 6,4 5 3 14 8 ENE 0,0
07.04.2020 04:00:00 9,1 5,9 4 2 13 7 ENE 0,0
07.04.2020 03:00:00 9,0 6,5 4 2 11 6 E 0,0
07.04.2020 02:00:00 9,1 6,4 5 3 11 6 ENE -
07.04.2020 01:00:00 9,0 6,2 5 3 12 7 ENE 0,0
07.04.2020 00:00:00 9,1 6,4 4 2 19 11 E 0,0
06.04.2020 23:00:00 9,5 6,1 4 2 19 10 ESE 0,8
06.04.2020 22:00:00 10,0 6,5 5 3 12 7 E 0,9
06.04.2020 21:00:00 10,6 7,1 3 1 11 6 E 0,1
06.04.2020 20:00:00 10,8 6,7 4 2 15 8 E -
06.04.2020 19:00:00 11,8 7,7 4 2 11 6 ESE 1,8
06.04.2020 18:00:00 12,7 5,8 6 3 15 8 SE 0,0
06.04.2020 17:00:00 13,2 5,8 7 4 17 9 SE 0,0
06.04.2020 16:00:00 12,9 7,1 6 3 16 9 ESE 0,0
06.04.2020 15:00:00 11,5 6,7 8 5 17 9 SE 0,1
06.04.2020 14:00:00 11,1 6,2 6 3 20 11 ESE -
06.04.2020 13:00:00 10,5 5,9 7 4 17 9 ESE 0,0
06.04.2020 12:00:00 9,9 6,1 6 3 23 12 E 0,0
06.04.2020 11:00:00 8,9 6,2 9 5 20 11 ESE 0,1
06.04.2020 10:00:00 8,0 5,6 8 4 17 9 E 0,3
06.04.2020 09:00:00 7,7 5,3 5 3 12 6 E 0,7
06.04.2020 08:00:00 7,6 5,0 4 2 11 6 ENE -
06.04.2020 07:00:00 7,6 4,6 5 3 10 5 ENE 1,0
06.04.2020 06:00:00 7,8 4,3 5 3 18 10 ENE 0,4
06.04.2020 05:00:00 9,0 2,3 5 3 16 8 ENE 0,1
06.04.2020 04:00:00 9,7 0,0 4 2 15 8 E 0,0
06.04.2020 03:00:00 10,2 0,0 5 3 16 9 E 0,0
06.04.2020 02:00:00 10,2 -0,7 4 2 17 9 ESE -
06.04.2020 01:00:00 10,7 -1,0 8 5 17 9 ESE 0,0
06.04.2020 00:00:00 10,6 -1,4 5 3 16 9 ESE 0,0
05.04.2020 23:00:00 11,0 -2,2 5 3 13 7 ESE 0,0
05.04.2020 22:00:00 11,3 -2,0 7 4 15 8 SE 0,0
05.04.2020 21:00:00 12,4 -1,2 5 3 16 8 E 0,0
05.04.2020 20:00:00 14,2 -0,7 8 4 19 11 ESE -
05.04.2020 19:00:00 14,7 -0,7 5 3 26 14 SE 0,0
05.04.2020 18:00:00 15,3 -1,0 8 4 24 13 SE 0,0
05.04.2020 17:00:00 15,6 -1,4 8 4 22 12 SSE 0,0
05.04.2020 16:00:00 14,9 -2,5 7 4 21 11 S 0,0
05.04.2020 15:00:00 14,8 -3,6 14 8 25 13 S 0,0
05.04.2020 14:00:00 15,4 -3,0 10 6 30 16 S -
05.04.2020 13:00:00 13,2 -3,6 13 7 31 17 SSE 0,0
05.04.2020 12:00:00 12,7 -1,0 9 5 26 14 SE 0,0
05.04.2020 11:00:00 10,2 -1,2 9 5 24 13 SE 0,0
05.04.2020 10:00:00 9,4 -2,0 11 6 26 14 ESE 0,0
05.04.2020 09:00:00 6,4 -2,2 7 4 21 11 E 0,0
05.04.2020 08:00:00 4,6 -2,0 4 2 12 6 E -
05.04.2020 07:00:00 5,0 -2,2 4 2 19 11 E 0,0
05.04.2020 06:00:00 5,1 -2,0 7 4 19 11 E 0,0
05.04.2020 05:00:00 5,2 -2,2 6 4 14 8 E 0,0
05.04.2020 04:00:00 5,5 -2,0 6 3 15 8 ESE 0,0
05.04.2020 03:00:00 6,3 -1,7 4 2 24 13 E 0,0
05.04.2020 02:00:00 7,5 -0,5 9 5 25 14 ESE -
05.04.2020 01:00:00 7,5 -0,3 5 3 25 13 E 0,0
05.04.2020 00:00:00 8,2 0,4 5 3 18 10 E 0,0
04.04.2020 23:00:00 9,3 0,6 8 4 21 11 ESE 0,0
04.04.2020 22:00:00 10,4 -0,3 10 5 24 13 ESE 0,0
04.04.2020 21:00:00 11,6 -1,0 8 4 22 12 ESE 0,0

tt = temperature
td = dewpoint
ff = wind speed
fx = gusts
dd = wind direction
rr = precipitation

Next stations